BBC Congo — V2EL3 — position and weather

sailwx.info

Track history (hours):
 
Tides and Currents Weather Stations Pressure Air Temp Water Temp Dewpoint Dewpoint Depression Visibility Wind Speed Wind Dir Waves Ship Positions

BBC Congo

Last reported at 2015-May-26 02:33 UTC. Time now 2015-May-26 11:52 UTC.
Position N 34°28' E 125°35'.

Length 144 m; draft 7.1 m.

Type: Ship. MMSI: 305466000.

Date/timePositionNaut miles runAvg speedWind from/ knotsBaromVisibWave heightAir tempDewpointWater temp
2015-May-26 02:33N 34°28' E 125°35'1614.7
2015-May-26 01:29N 34°43' E 125°36'1314.3
2015-May-26 00:33N 34°56' E 125°38'1813.9
2015-May-25 23:15N 35°14' E 125°41'1013.8
2015-May-25 22:33N 35°24' E 125°42'4113.6
2015-May-25 19:33N 36°05' E 125°48'1813.9
2015-May-25 18:17N 36°22' E 125°48'1614.2
2015-May-25 17:11N 36°37' E 125°54'914.5
2015-May-25 16:34N 36°46' E 125°57'  
2015-May-22 13:27N 34°06' E 124°55'1213.3
2015-May-22 12:33N 33°55' E 124°55'1612.9
2015-May-22 11:21N 33°39' E 124°56'1013.1
2015-May-22 10:34N 33°29' E 124°56'1913.6
2015-May-22 09:10N 33°10' E 124°56'914.2
2015-May-22 08:33N 33°01' E 124°55'5814.6
2015-May-22 04:33N 32°04' E 124°44'1614.9
2015-May-22 03:31N 31°49' E 124°38'8814.3
2015-May-21 21:21N 30°25' E 124°06'43812.8
2015-May-20 11:06N 24°33' E 119°13'6113.3
2015-May-20 06:32N 23°52' E 118°24'1513.8
2015-May-20 05:28N 23°42' E 118°12'2814.7
2015-May-20 03:32N 23°23' E 117°50'  
Track history (hours):
 
Tides and Currents Weather Stations Pressure Air Temp Water Temp Dewpoint Dewpoint Depression Visibility Wind Speed Wind Dir Waves Ship Positions

BBC Congo

Last reported at 2015-May-26 02:33 UTC. Time now 2015-May-26 11:52 UTC.
Position N 34°28' E 125°35'.

Length 144 m; draft 7.1 m.

Type: Ship. MMSI: 305466000.

Date/timePositionNaut miles runAvg speedWind from/ knotsBaromVisibWave heightAir tempDewpointWater temp
2015-May-26 02:33N 34°28' E 125°35'1614.7
2015-May-26 01:29N 34°43' E 125°36'1314.3
2015-May-26 00:33N 34°56' E 125°38'1813.9
2015-May-25 23:15N 35°14' E 125°41'1013.8
2015-May-25 22:33N 35°24' E 125°42'4113.6
2015-May-25 19:33N 36°05' E 125°48'1813.9
2015-May-25 18:17N 36°22' E 125°48'1614.2
2015-May-25 17:11N 36°37' E 125°54'914.5
2015-May-25 16:34N 36°46' E 125°57'  
2015-May-22 13:27N 34°06' E 124°55'1213.3
2015-May-22 12:33N 33°55' E 124°55'1612.9
2015-May-22 11:21N 33°39' E 124°56'1013.1
2015-May-22 10:34N 33°29' E 124°56'1913.6
2015-May-22 09:10N 33°10' E 124°56'914.2
2015-May-22 08:33N 33°01' E 124°55'5814.6
2015-May-22 04:33N 32°04' E 124°44'1614.9
2015-May-22 03:31N 31°49' E 124°38'8814.3
2015-May-21 21:21N 30°25' E 124°06'43812.8
2015-May-20 11:06N 24°33' E 119°13'6113.3
2015-May-20 06:32N 23°52' E 118°24'1513.8
2015-May-20 05:28N 23°42' E 118°12'2814.7
2015-May-20 03:32N 23°23' E 117°50'  

Dump ship's entire track history